createdAt,value
2022-08-18T00:04:48.600Z,49.84
2022-08-18T00:09:54.479Z,49.76
2022-08-18T00:14:46.931Z,50.23
2022-08-18T00:19:48.359Z,50.45
2022-08-18T00:24:47.860Z,50.59
2022-08-18T00:29:46.690Z,50.72
2022-08-18T00:34:46.633Z,50.90
2022-08-18T00:39:48.092Z,51.02
2022-08-18T00:44:46.477Z,51.11
2022-08-18T00:49:46.427Z,51.21
2022-08-18T00:54:46.433Z,51.31
2022-08-18T00:59:46.316Z,51.46
2022-08-18T01:04:46.249Z,51.62
2022-08-18T01:09:46.184Z,51.78
2022-08-18T01:14:46.077Z,51.93
2022-08-18T01:19:46.034Z,52.11
2022-08-18T01:24:46.015Z,52.23
2022-08-18T01:29:45.896Z,52.39
2022-08-18T01:34:45.807Z,52.49
2022-08-18T01:41:06.299Z,52.58
2022-08-18T01:44:46.691Z,52.65
2022-08-18T01:49:45.678Z,52.76
2022-08-18T01:54:45.555Z,52.92
2022-08-18T01:59:45.488Z,53.02
2022-08-18T02:04:45.416Z,53.08
2022-08-18T02:09:45.411Z,53.13
2022-08-18T02:14:45.309Z,53.26
2022-08-18T02:19:45.235Z,53.35
2022-08-18T02:24:45.156Z,53.46
2022-08-18T02:29:45.141Z,53.59
2022-08-18T02:34:45.031Z,53.71
2022-08-18T02:39:45.009Z,53.79
2022-08-18T02:44:44.899Z,53.95
2022-08-18T02:49:44.846Z,54.07
2022-08-18T02:54:44.756Z,54.28
2022-08-18T02:59:46.887Z,54.45
2022-08-18T03:04:44.722Z,54.59
2022-08-18T03:09:44.590Z,54.66
2022-08-18T03:14:44.498Z,54.72
2022-08-18T03:19:44.439Z,54.80
2022-08-18T03:24:44.383Z,54.91
2022-08-18T03:29:44.312Z,54.99
2022-08-18T03:34:44.247Z,55.07
2022-08-18T03:39:44.276Z,55.17
2022-08-18T03:44:44.094Z,55.28
2022-08-18T03:49:44.079Z,55.40
2022-08-18T03:54:43.974Z,55.49
2022-08-18T03:59:43.943Z,55.51
2022-08-18T04:04:43.846Z,55.54
2022-08-18T04:09:43.781Z,55.56
2022-08-18T04:14:43.718Z,55.62
2022-08-18T04:19:58.257Z,55.37
2022-08-18T04:24:50.812Z,55.82
2022-08-18T04:29:50.609Z,55.99
2022-08-18T04:34:50.543Z,56.04
2022-08-18T04:39:50.550Z,56.10
2022-08-18T04:44:50.451Z,56.15
2022-08-18T04:49:50.464Z,56.19
2022-08-18T04:54:50.307Z,56.20
2022-08-18T04:59:50.195Z,56.26
2022-08-18T05:04:50.185Z,56.33
2022-08-18T05:09:50.078Z,56.41
2022-08-18T05:14:50.009Z,56.48
2022-08-18T05:19:49.962Z,56.48
2022-08-18T05:24:49.898Z,56.48
2022-08-18T05:29:51.542Z,56.49
2022-08-18T05:34:49.742Z,56.49
2022-08-18T05:39:50.425Z,56.50
2022-08-18T05:44:49.637Z,56.48
2022-08-18T05:49:49.522Z,56.51
2022-08-18T05:54:49.506Z,56.56
2022-08-18T05:59:49.430Z,56.52
2022-08-18T06:04:49.373Z,56.54
2022-08-18T06:09:49.258Z,56.56
2022-08-18T06:14:49.190Z,56.58
2022-08-18T06:19:49.136Z,56.55
2022-08-18T06:24:49.068Z,56.53
2022-08-18T06:29:49.371Z,56.58
2022-08-18T06:34:48.972Z,56.56
2022-08-18T06:39:48.933Z,56.50
2022-08-18T06:44:48.798Z,56.43
2022-08-18T06:49:48.791Z,56.23
2022-08-18T06:54:51.465Z,55.90
2022-08-18T06:59:48.602Z,55.52
2022-08-18T07:04:48.563Z,55.06
2022-08-18T07:09:48.528Z,54.78
2022-08-18T07:14:48.399Z,54.64
2022-08-18T07:19:48.348Z,54.87
2022-08-18T07:24:48.270Z,55.01
2022-08-18T07:29:48.261Z,55.23
2022-08-18T07:34:48.128Z,55.35
2022-08-18T07:39:49.161Z,55.46
2022-08-18T07:44:48.018Z,55.40
2022-08-18T07:50:16.509Z,55.39
2022-08-18T07:54:50.357Z,55.34
2022-08-18T07:59:47.818Z,55.25
2022-08-18T08:04:47.780Z,55.04
2022-08-18T08:09:51.799Z,54.83
2022-08-18T08:14:47.633Z,54.70
2022-08-18T08:20:02.861Z,54.64
2022-08-18T08:24:48.489Z,54.62
2022-08-18T08:29:47.476Z,54.63
2022-08-18T08:34:47.373Z,54.58
2022-08-18T08:39:47.420Z,54.53
2022-08-18T08:44:58.912Z,54.31
2022-08-18T08:49:54.771Z,53.74
2022-08-18T08:54:48.075Z,53.43
2022-08-18T08:59:47.053Z,53.10
2022-08-18T09:04:55.743Z,53.10
2022-08-18T09:09:47.948Z,53.47
2022-08-18T09:14:46.838Z,54.09
2022-08-18T09:19:47.119Z,54.40
2022-08-18T09:24:46.696Z,54.22
2022-08-18T09:29:46.642Z,53.29
2022-08-18T09:34:46.704Z,52.63
2022-08-18T09:39:51.677Z,51.50
2022-08-18T09:44:47.429Z,50.98
2022-08-18T09:49:47.843Z,50.39
2022-08-18T09:54:47.308Z,49.31
2022-08-18T09:59:46.238Z,49.13
2022-08-18T10:04:46.937Z,49.45
2022-08-18T10:09:46.112Z,49.13
2022-08-18T10:14:46.060Z,48.33
2022-08-18T10:19:46.016Z,48.17
2022-08-18T10:24:45.929Z,48.94
2022-08-18T10:29:45.869Z,49.28
2022-08-18T10:34:51.792Z,49.06
2022-08-18T10:39:46.781Z,46.57
2022-08-18T10:44:45.659Z,46.31
2022-08-18T10:49:46.928Z,47.15
2022-08-18T10:54:51.063Z,47.14
2022-08-18T10:59:50.518Z,46.09
2022-08-18T11:04:46.379Z,44.67
2022-08-18T11:09:50.816Z,39.56
2022-08-18T11:14:46.261Z,40.35
2022-08-18T11:19:45.200Z,40.41
2022-08-18T11:24:45.111Z,41.60
2022-08-18T11:29:45.064Z,39.85
2022-08-18T11:34:45.723Z,39.92
2022-08-18T11:39:45.977Z,39.15
2022-08-18T11:44:44.849Z,39.04
2022-08-18T11:49:44.794Z,42.45
2022-08-18T11:54:50.799Z,43.78
2022-08-18T11:59:54.672Z,44.95
2022-08-18T12:04:45.597Z,45.83
2022-08-18T12:10:18.039Z,45.22
2022-08-18T12:14:45.482Z,43.97
2022-08-18T12:19:44.417Z,43.03
2022-08-18T12:24:44.394Z,42.54
2022-08-18T12:29:45.122Z,41.56
2022-08-18T12:34:44.207Z,41.82
2022-08-18T12:39:44.322Z,42.40
2022-08-18T12:44:44.100Z,42.28
2022-08-18T12:49:43.992Z,42.02
2022-08-18T12:54:55.507Z,41.68
2022-08-18T12:59:44.964Z,41.32
2022-08-18T13:04:43.856Z,40.73
2022-08-18T13:09:52.541Z,40.77
2022-08-18T13:14:44.838Z,40.06
2022-08-18T13:19:43.676Z,38.98
2022-08-18T13:24:43.554Z,38.08
2022-08-18T13:29:43.533Z,38.52
2022-08-18T13:34:43.437Z,38.35
2022-08-18T13:39:43.912Z,39.70
2022-08-18T13:44:43.341Z,39.28
2022-08-18T13:49:58.984Z,39.54
2022-08-18T13:54:44.216Z,39.62
2022-08-18T13:59:46.790Z,39.04
2022-08-18T14:04:43.050Z,38.68
2022-08-18T14:09:43.024Z,38.52
2022-08-18T14:14:43.022Z,38.26
2022-08-18T14:19:42.840Z,38.22
2022-08-18T14:24:42.776Z,38.42
2022-08-18T14:29:47.280Z,37.47
2022-08-18T14:34:50.647Z,38.07
2022-08-18T14:39:50.195Z,38.14
2022-08-18T14:44:43.555Z,38.79
2022-08-18T14:49:42.983Z,39.27
2022-08-18T14:54:46.378Z,39.30
2022-08-18T14:59:43.303Z,39.32
2022-08-18T15:04:55.915Z,39.19
2022-08-18T15:09:43.229Z,39.05
2022-08-18T15:14:42.099Z,39.42
2022-08-18T15:19:59.661Z,39.87
2022-08-18T15:24:42.984Z,40.18
2022-08-18T15:29:41.910Z,39.91
2022-08-18T15:34:46.447Z,40.16
2022-08-18T15:39:42.870Z,40.45
2022-08-18T15:44:41.807Z,40.33
2022-08-18T15:49:41.653Z,40.48
2022-08-18T15:54:42.367Z,40.25
2022-08-18T15:59:41.541Z,40.18
2022-08-18T16:04:44.991Z,40.30
2022-08-18T16:09:41.368Z,40.26
2022-08-18T16:14:41.348Z,40.67
2022-08-18T16:19:41.344Z,40.96
2022-08-18T16:24:41.220Z,41.22
2022-08-18T16:29:41.210Z,41.46
2022-08-18T16:34:41.096Z,41.74
2022-08-18T16:39:41.055Z,41.92
2022-08-18T16:44:40.935Z,42.08
2022-08-18T16:49:40.982Z,42.26
2022-08-18T16:54:40.803Z,42.41
2022-08-18T16:59:40.744Z,42.56
2022-08-18T17:04:40.757Z,42.71
2022-08-18T17:09:40.621Z,42.88
2022-08-18T17:14:40.646Z,43.01
2022-08-18T17:19:40.475Z,43.18
2022-08-18T17:24:49.527Z,43.40
2022-08-18T17:29:41.372Z,43.64
2022-08-18T17:34:40.285Z,43.84
2022-08-18T17:39:40.292Z,44.04
2022-08-18T17:44:46.368Z,44.19
2022-08-18T17:49:41.290Z,44.39
2022-08-18T17:54:40.102Z,44.57
2022-08-18T17:59:45.746Z,44.78
2022-08-18T18:04:40.906Z,44.96
2022-08-18T18:09:39.829Z,45.14
2022-08-18T18:14:39.863Z,45.32
2022-08-18T18:19:39.751Z,45.50
2022-08-18T18:24:39.687Z,45.67
2022-08-18T18:29:39.594Z,45.82
2022-08-18T18:34:39.664Z,46.03
2022-08-18T18:39:39.526Z,46.25
2022-08-18T18:44:39.371Z,46.55
2022-08-18T18:49:39.330Z,46.77
2022-08-18T18:54:39.245Z,47.00
2022-08-18T18:59:39.214Z,47.23
2022-08-18T19:04:39.118Z,47.45
2022-08-18T19:09:39.051Z,47.66
2022-08-18T19:14:39.028Z,47.84
2022-08-18T19:19:39.449Z,48.03
2022-08-18T19:24:38.992Z,48.23
2022-08-18T19:29:38.790Z,48.41
2022-08-18T19:34:51.085Z,48.55
2022-08-18T19:39:39.707Z,48.66
2022-08-18T19:44:38.591Z,48.78
2022-08-18T19:49:38.538Z,48.89
2022-08-18T19:54:38.444Z,49.07
2022-08-18T19:59:38.426Z,49.24
2022-08-18T20:04:38.338Z,49.39
2022-08-18T20:09:38.277Z,49.54
2022-08-18T20:14:38.405Z,49.64
2022-08-18T20:19:38.134Z,49.75
2022-08-18T20:24:38.462Z,49.86
2022-08-18T20:29:38.000Z,50.01
2022-08-18T20:34:37.940Z,50.16
2022-08-18T20:39:38.042Z,50.29
2022-08-18T20:44:37.803Z,50.39
2022-08-18T20:49:37.748Z,50.50
2022-08-18T20:54:37.755Z,50.59
2022-08-18T20:59:37.615Z,50.69
2022-08-18T21:04:42.486Z,50.76
2022-08-18T21:09:38.771Z,50.86
2022-08-18T21:14:37.384Z,50.95
2022-08-18T21:19:37.347Z,51.08
2022-08-18T21:24:37.278Z,51.20
2022-08-18T21:29:49.235Z,51.32
2022-08-18T21:34:41.728Z,51.42
2022-08-18T21:39:38.363Z,51.57
2022-08-18T21:44:37.052Z,51.68
2022-08-18T21:49:36.982Z,51.80
2022-08-18T21:54:37.423Z,51.87
2022-08-18T21:59:36.921Z,51.95
2022-08-18T22:04:36.763Z,52.07
2022-08-18T22:09:36.671Z,52.15
2022-08-18T22:14:55.242Z,52.23
2022-08-18T22:19:37.534Z,52.35
2022-08-18T22:24:36.446Z,52.49
2022-08-18T22:29:36.430Z,52.61
2022-08-18T22:34:37.359Z,52.69
2022-08-18T22:39:36.328Z,52.74
2022-08-18T22:44:36.222Z,52.78
2022-08-18T22:49:36.159Z,52.84
2022-08-18T22:54:36.083Z,52.95
2022-08-18T22:59:36.014Z,53.08
2022-08-18T23:04:36.955Z,53.18
2022-08-18T23:09:35.914Z,53.27
2022-08-18T23:14:35.832Z,53.32
2022-08-18T23:19:35.734Z,53.38
2022-08-18T23:24:35.726Z,53.46
2022-08-18T23:29:35.620Z,53.52
2022-08-18T23:34:35.654Z,53.62
2022-08-18T23:39:35.535Z,53.73
2022-08-18T23:44:35.409Z,53.87
2022-08-18T23:49:36.035Z,54.05
2022-08-18T23:54:35.308Z,54.18
2022-08-18T23:59:35.210Z,54.26
